createdAt,value
2023-03-15T00:02:10.778Z,60.33
2023-03-15T00:04:39.844Z,60.65
2023-03-15T00:07:07.510Z,61.18
2023-03-15T00:09:35.164Z,61.14
2023-03-15T00:12:03.399Z,61.29
2023-03-15T00:14:31.641Z,61.16
2023-03-15T00:16:59.308Z,61.10
2023-03-15T00:19:27.244Z,61.05
2023-03-15T00:21:56.298Z,61.05
2023-03-15T00:24:25.142Z,61.00
2023-03-15T00:26:52.929Z,60.76
2023-03-15T00:29:20.616Z,60.73
2023-03-15T00:31:48.283Z,60.48
2023-03-15T00:34:15.991Z,61.01
2023-03-15T00:36:43.956Z,61.21
2023-03-15T00:39:15.305Z,61.52
2023-03-15T00:41:46.006Z,62.18
2023-03-15T00:44:13.862Z,61.60
2023-03-15T00:46:41.525Z,61.19
2023-03-15T00:49:09.290Z,61.03
2023-03-15T00:51:37.477Z,61.29
2023-03-15T00:54:05.132Z,61.06
2023-03-15T00:56:34.244Z,61.14
2023-03-15T00:59:01.924Z,61.36
2023-03-15T01:01:31.028Z,61.63
2023-03-15T01:03:58.777Z,61.99
2023-03-15T01:06:29.250Z,62.21
2023-03-15T01:08:57.545Z,62.44
2023-03-15T01:11:30.858Z,62.65
2023-03-15T01:14:00.739Z,62.82
2023-03-15T01:16:29.409Z,62.81
2023-03-15T01:18:57.576Z,62.63
2023-03-15T01:21:25.502Z,62.15
2023-03-15T01:23:53.951Z,61.86
2023-03-15T01:26:21.710Z,61.78
2023-03-15T01:28:49.519Z,61.72
2023-03-15T01:31:22.302Z,62.22
2023-03-15T01:33:50.017Z,62.07
2023-03-15T01:36:18.535Z,62.51
2023-03-15T01:38:46.702Z,62.69
2023-03-15T01:41:15.611Z,63.09
2023-03-15T01:43:47.133Z,63.18
2023-03-15T01:46:27.437Z,63.18
2023-03-15T01:49:00.862Z,62.71
2023-03-15T01:51:35.197Z,62.94
2023-03-15T01:54:07.935Z,62.60
2023-03-15T01:56:39.575Z,62.95
2023-03-15T01:59:12.492Z,63.22
2023-03-15T02:01:45.641Z,63.21
2023-03-15T02:04:18.478Z,63.48
2023-03-15T02:06:47.718Z,63.80
2023-03-15T02:09:19.104Z,63.84
2023-03-15T02:11:47.248Z,63.90
2023-03-15T02:14:16.303Z,64.14
2023-03-15T02:16:45.751Z,64.49
2023-03-15T02:19:25.788Z,64.50
2023-03-15T02:22:03.044Z,64.51
2023-03-15T02:24:40.212Z,64.63
2023-03-15T02:27:08.075Z,64.75
2023-03-15T02:29:37.329Z,65.02
2023-03-15T02:32:07.281Z,64.42
2023-03-15T02:34:34.948Z,64.18
2023-03-15T02:37:02.701Z,64.00
2023-03-15T02:39:30.406Z,63.80
2023-03-15T02:41:59.500Z,63.93
2023-03-15T02:44:30.289Z,64.12
2023-03-15T02:47:04.464Z,63.96
2023-03-15T02:49:36.251Z,64.20
2023-03-15T02:52:04.423Z,64.09
2023-03-15T02:54:34.320Z,64.35
2023-03-15T02:57:02.578Z,64.49
2023-03-15T02:59:30.310Z,64.74
2023-03-15T03:01:59.532Z,64.76
2023-03-15T03:04:27.282Z,64.83
2023-03-15T03:06:55.095Z,65.00
2023-03-15T03:09:23.475Z,65.17
2023-03-15T03:11:51.185Z,64.94
2023-03-15T03:14:18.956Z,65.02
2023-03-15T03:16:46.679Z,64.72
2023-03-15T03:19:15.852Z,64.71
2023-03-15T03:21:44.347Z,64.35
2023-03-15T03:24:16.227Z,64.68
2023-03-15T03:26:46.220Z,64.46
2023-03-15T03:29:16.685Z,64.41
2023-03-15T03:31:45.312Z,63.95
2023-03-15T03:34:15.601Z,64.51
2023-03-15T03:36:45.238Z,64.49
2023-03-15T03:39:13.417Z,64.42
2023-03-15T03:41:41.595Z,64.65
2023-03-15T03:44:09.344Z,64.71
2023-03-15T03:46:37.349Z,64.95
2023-03-15T03:49:05.051Z,65.37
2023-03-15T03:51:34.109Z,65.18
2023-03-15T03:54:03.809Z,65.17
2023-03-15T03:56:31.900Z,65.65
2023-03-15T03:58:59.660Z,64.96
2023-03-15T04:01:27.420Z,64.48
2023-03-15T04:03:55.069Z,63.93
2023-03-15T04:06:23.793Z,63.95
2023-03-15T04:08:51.443Z,64.12
2023-03-15T04:11:20.438Z,63.54
2023-03-15T04:13:48.293Z,63.46
2023-03-15T04:16:16.208Z,63.77
2023-03-15T04:18:43.870Z,64.01
2023-03-15T04:21:11.856Z,64.10
2023-03-15T04:23:40.367Z,64.16
2023-03-15T04:26:08.018Z,65.09
2023-03-15T04:28:38.091Z,63.93
2023-03-15T04:31:10.531Z,63.70
2023-03-15T04:33:38.344Z,63.63
2023-03-15T04:36:06.427Z,63.53
2023-03-15T04:38:35.489Z,63.94
2023-03-15T04:41:10.744Z,64.23
2023-03-15T04:43:40.029Z,64.14
2023-03-15T04:46:08.028Z,63.92
2023-03-15T04:48:35.998Z,63.38
2023-03-15T04:51:03.752Z,63.48
2023-03-15T04:53:31.673Z,63.13
2023-03-15T04:55:59.839Z,63.19
2023-03-15T04:58:27.492Z,63.45
2023-03-15T05:00:56.517Z,62.72
2023-03-15T05:03:24.365Z,62.38
2023-03-15T05:05:52.097Z,62.31
2023-03-15T05:08:19.780Z,62.65
2023-03-15T05:10:47.724Z,63.08
2023-03-15T05:13:15.342Z,63.27
2023-03-15T05:15:43.064Z,63.44
2023-03-15T05:18:12.308Z,63.13
2023-03-15T05:20:39.975Z,63.31
2023-03-15T05:23:07.692Z,62.98
2023-03-15T05:25:37.650Z,63.29
2023-03-15T05:28:06.804Z,63.61
2023-03-15T05:30:34.543Z,63.39
2023-03-15T05:33:04.723Z,63.83
2023-03-15T05:35:33.906Z,63.79
2023-03-15T05:38:01.647Z,63.89
2023-03-15T05:40:30.490Z,64.81
2023-03-15T05:42:58.125Z,64.51
2023-03-15T05:45:25.987Z,64.00
2023-03-15T05:47:53.657Z,64.31
2023-03-15T05:50:21.977Z,63.91
2023-03-15T05:52:53.015Z,64.44
2023-03-15T05:55:20.987Z,63.91
2023-03-15T05:57:48.743Z,64.22
2023-03-15T06:00:17.640Z,64.37
2023-03-15T06:02:47.040Z,64.46
2023-03-15T06:05:14.816Z,64.05
2023-03-15T06:07:42.789Z,63.85
2023-03-15T06:10:14.133Z,64.53
2023-03-15T06:12:41.924Z,64.58
2023-03-15T06:15:10.839Z,64.25
2023-03-15T06:17:40.899Z,63.85
2023-03-15T06:20:09.453Z,63.13
2023-03-15T06:22:37.227Z,63.16
2023-03-15T06:25:05.529Z,62.52
2023-03-15T06:27:34.818Z,62.26
2023-03-15T06:30:02.873Z,61.61
2023-03-15T06:32:30.970Z,61.53
2023-03-15T06:34:58.699Z,61.53
2023-03-15T06:37:35.030Z,61.45
2023-03-15T06:40:06.035Z,61.61
2023-03-15T06:42:35.276Z,61.01
2023-03-15T06:45:03.406Z,61.40
2023-03-15T06:47:31.203Z,61.29
2023-03-15T06:49:58.899Z,61.57
2023-03-15T06:52:26.617Z,61.69
2023-03-15T06:54:54.511Z,61.54
2023-03-15T06:57:22.236Z,61.63
2023-03-15T06:59:51.640Z,61.57
2023-03-15T07:02:20.209Z,61.32
2023-03-15T07:04:49.436Z,61.27
2023-03-15T07:07:17.735Z,61.57
2023-03-15T07:09:45.926Z,61.50
2023-03-15T07:12:14.252Z,61.26
2023-03-15T07:14:41.956Z,61.16
2023-03-15T07:17:11.480Z,61.19
2023-03-15T07:19:46.773Z,61.29
2023-03-15T07:22:22.951Z,61.91
2023-03-15T07:24:51.194Z,62.39
2023-03-15T07:27:19.884Z,62.62
2023-03-15T07:29:48.653Z,63.14
2023-03-15T07:32:17.965Z,63.69
2023-03-15T07:34:45.710Z,64.38
2023-03-15T07:37:13.493Z,64.69
2023-03-15T07:39:41.296Z,64.39
2023-03-15T07:42:09.670Z,64.56
2023-03-15T07:44:37.405Z,64.44
2023-03-15T07:47:05.560Z,64.81
2023-03-15T07:49:35.368Z,64.79
2023-03-15T07:52:03.592Z,64.66
2023-03-15T07:54:31.907Z,64.65
2023-03-15T07:56:59.657Z,64.46
2023-03-15T07:59:27.389Z,64.67
2023-03-15T08:01:55.488Z,64.69
2023-03-15T08:04:23.499Z,64.31
2023-03-15T08:06:52.928Z,64.40
2023-03-15T08:09:20.654Z,64.38
2023-03-15T08:11:48.272Z,64.38
2023-03-15T08:14:16.095Z,64.14
2023-03-15T08:16:43.838Z,64.02
2023-03-15T08:19:11.566Z,64.45
2023-03-15T08:21:39.338Z,64.35
2023-03-15T08:24:09.106Z,64.73
2023-03-15T08:26:36.808Z,64.69
2023-03-15T08:29:05.033Z,64.60
2023-03-15T08:31:32.929Z,64.77
2023-03-15T08:34:00.669Z,65.19
2023-03-15T08:36:28.621Z,65.41
2023-03-15T08:38:56.429Z,65.64
2023-03-15T08:41:25.701Z,65.70
2023-03-15T08:43:53.428Z,65.95
2023-03-15T08:46:22.187Z,65.96
2023-03-15T08:48:50.093Z,65.83
2023-03-15T08:51:17.927Z,66.09
2023-03-15T08:53:45.541Z,65.25
2023-03-15T08:56:13.596Z,65.78
2023-03-15T08:58:42.777Z,66.00
2023-03-15T09:01:12.671Z,65.86
2023-03-15T09:03:42.443Z,65.45
2023-03-15T09:06:10.846Z,65.32
2023-03-15T09:08:38.652Z,65.63
2023-03-15T09:11:06.726Z,65.40
2023-03-15T09:13:34.843Z,65.69
2023-03-15T09:16:04.250Z,65.76
2023-03-15T09:18:34.040Z,66.28
2023-03-15T09:21:01.874Z,66.42
2023-03-15T09:23:29.483Z,65.89
2023-03-15T09:25:57.249Z,65.16
2023-03-15T09:28:26.634Z,64.61
2023-03-15T09:30:54.608Z,65.28
2023-03-15T09:33:23.924Z,64.63
2023-03-15T09:35:52.779Z,64.18
2023-03-15T09:38:22.094Z,64.46
2023-03-15T09:40:49.905Z,64.27
2023-03-15T09:43:46.936Z,64.10
2023-03-15T09:46:27.626Z,64.06
2023-03-15T09:49:04.845Z,63.79
2023-03-15T09:51:40.303Z,63.63
2023-03-15T09:54:13.802Z,62.97
2023-03-15T09:56:47.065Z,62.72
2023-03-15T09:59:17.588Z,62.67
2023-03-15T10:01:46.719Z,62.50
2023-03-15T10:04:26.583Z,61.85
2023-03-15T10:06:56.671Z,60.34
2023-03-15T10:09:26.591Z,58.78
2023-03-15T10:12:03.766Z,57.43
2023-03-15T10:14:49.405Z,56.56
2023-03-15T10:17:23.368Z,56.00
2023-03-15T10:19:54.482Z,55.56
2023-03-15T10:22:29.527Z,56.26
2023-03-15T10:25:03.216Z,57.13
2023-03-15T10:27:35.539Z,58.35
2023-03-15T10:30:14.209Z,58.08
2023-03-15T10:32:45.747Z,55.96
2023-03-15T10:35:18.756Z,53.67
2023-03-15T10:37:46.554Z,53.44
2023-03-15T10:40:16.356Z,54.31
2023-03-15T10:42:45.740Z,53.04
2023-03-15T10:45:20.890Z,52.31
2023-03-15T10:47:57.688Z,51.87
2023-03-15T10:50:31.640Z,51.26
2023-03-15T10:53:02.308Z,51.72
2023-03-15T10:55:33.940Z,53.30
2023-03-15T10:58:19.548Z,54.51
2023-03-15T11:00:51.850Z,55.72
2023-03-15T11:03:22.256Z,55.95
2023-03-15T11:05:53.339Z,56.55
2023-03-15T11:08:23.209Z,56.88
2023-03-15T11:10:57.528Z,56.63
2023-03-15T11:13:27.438Z,57.03
2023-03-15T11:16:01.458Z,57.06
2023-03-15T11:18:32.100Z,57.34
2023-03-15T11:21:05.199Z,57.77
2023-03-15T11:23:36.572Z,57.64
2023-03-15T11:26:04.772Z,57.35
2023-03-15T11:28:37.165Z,56.87
2023-03-15T11:31:06.364Z,56.38
2023-03-15T11:33:42.590Z,55.07
2023-03-15T11:36:16.674Z,52.80
2023-03-15T11:38:46.249Z,50.27
2023-03-15T11:41:24.741Z,47.97
2023-03-15T11:44:04.038Z,48.39
2023-03-15T11:46:35.558Z,49.68
2023-03-15T11:49:11.679Z,50.48
2023-03-15T11:51:41.045Z,51.72
2023-03-15T11:54:14.527Z,52.36
2023-03-15T11:56:57.140Z,53.53
2023-03-15T11:59:32.667Z,54.26
2023-03-15T12:02:07.523Z,54.54
2023-03-15T12:04:45.868Z,54.94
2023-03-15T12:07:36.727Z,54.37
2023-03-15T12:10:31.796Z,54.35
2023-03-15T12:13:06.678Z,54.78
2023-03-15T12:15:46.980Z,53.56
2023-03-15T12:18:20.959Z,53.22
2023-03-15T12:20:58.153Z,52.02
2023-03-15T12:23:42.528Z,51.78
2023-03-15T12:26:17.682Z,51.66
2023-03-15T12:28:53.437Z,50.98
2023-03-15T12:31:21.819Z,51.48
2023-03-15T12:33:51.986Z,51.85
2023-03-15T12:36:28.990Z,50.84
2023-03-15T12:39:04.381Z,50.61
2023-03-15T12:41:38.311Z,50.20
2023-03-15T12:44:28.104Z,49.53
2023-03-15T12:47:00.727Z,49.94
2023-03-15T12:49:35.071Z,49.25
2023-03-15T12:52:05.562Z,46.78
2023-03-15T12:54:43.328Z,42.57
2023-03-15T12:57:13.580Z,40.14
2023-03-15T12:59:51.490Z,39.07
2023-03-15T13:02:41.726Z,38.57
2023-03-15T13:05:18.882Z,37.56
2023-03-15T13:08:09.640Z,38.78
2023-03-15T13:10:48.256Z,39.91
2023-03-15T13:13:31.058Z,40.05
2023-03-15T13:16:09.822Z,40.57
2023-03-15T13:18:48.577Z,41.13
2023-03-15T13:21:21.104Z,41.73
2023-03-15T13:23:52.251Z,41.74
2023-03-15T13:26:36.093Z,41.42
2023-03-15T13:29:14.268Z,42.24
2023-03-15T13:31:42.509Z,43.28
2023-03-15T13:34:18.469Z,44.31
2023-03-15T13:36:48.513Z,45.34
2023-03-15T13:39:20.693Z,46.43
2023-03-15T13:41:50.194Z,47.51
2023-03-15T13:44:20.754Z,47.11
2023-03-15T13:46:50.043Z,46.91
2023-03-15T13:49:19.091Z,47.30
2023-03-15T13:51:48.534Z,47.98
2023-03-15T13:54:19.689Z,48.35
2023-03-15T13:56:58.200Z,49.08
2023-03-15T13:59:32.559Z,49.73
2023-03-15T14:02:03.470Z,50.05
2023-03-15T14:04:37.568Z,50.87
2023-03-15T14:07:19.986Z,50.32
2023-03-15T14:09:47.733Z,50.48
2023-03-15T14:12:23.809Z,50.37
2023-03-15T14:14:53.621Z,51.01
2023-03-15T14:17:27.616Z,52.87
2023-03-15T14:19:57.034Z,54.65
2023-03-15T14:22:31.959Z,55.91
2023-03-15T14:24:59.824Z,57.66
2023-03-15T14:27:30.580Z,57.08
2023-03-15T14:30:00.031Z,56.51
2023-03-15T14:32:30.157Z,54.99
2023-03-15T14:35:02.102Z,54.04
2023-03-15T14:37:33.227Z,54.10
2023-03-15T14:40:21.271Z,53.32
2023-03-15T14:42:51.676Z,54.01
2023-03-15T14:45:22.239Z,53.12
2023-03-15T14:47:57.245Z,52.71
2023-03-15T14:50:27.473Z,52.06
2023-03-15T14:52:55.640Z,52.43
2023-03-15T14:55:38.953Z,52.23
2023-03-15T14:58:13.686Z,52.21
2023-03-15T15:00:42.181Z,52.42
2023-03-15T15:03:18.452Z,51.30
2023-03-15T15:05:47.364Z,51.58
2023-03-15T15:08:17.903Z,51.35
2023-03-15T15:10:48.090Z,50.88
2023-03-15T15:13:20.245Z,50.93
2023-03-15T15:15:55.513Z,50.15
2023-03-15T15:18:25.000Z,51.17
2023-03-15T15:20:55.538Z,50.41
2023-03-15T15:23:25.665Z,50.87
2023-03-15T15:25:56.975Z,51.18
2023-03-15T15:28:35.253Z,50.98
2023-03-15T15:31:05.904Z,50.70
2023-03-15T15:33:34.163Z,51.83
2023-03-15T15:36:02.757Z,51.22
2023-03-15T15:38:34.839Z,50.71
2023-03-15T15:41:02.742Z,51.20
2023-03-15T15:43:33.586Z,51.15
2023-03-15T15:46:01.943Z,51.42
2023-03-15T15:48:29.875Z,51.67
2023-03-15T15:50:57.760Z,49.96
2023-03-15T15:53:25.794Z,49.78
2023-03-15T15:55:53.536Z,48.95
2023-03-15T15:58:22.947Z,48.88
2023-03-15T16:00:52.070Z,49.29
2023-03-15T16:03:19.866Z,49.45
2023-03-15T16:05:47.837Z,49.45
2023-03-15T16:08:22.371Z,49.27
2023-03-15T16:10:50.402Z,49.74
2023-03-15T16:13:18.486Z,49.65
2023-03-15T16:15:46.579Z,49.68
2023-03-15T16:18:15.691Z,50.14
2023-03-15T16:20:44.269Z,50.28
2023-03-15T16:23:19.053Z,50.54
2023-03-15T16:25:48.936Z,49.93
2023-03-15T16:28:16.733Z,48.73
2023-03-15T16:30:46.716Z,49.35
2023-03-15T16:33:18.337Z,49.82
2023-03-15T16:35:47.661Z,49.60
2023-03-15T16:38:17.520Z,50.34
2023-03-15T16:40:46.868Z,49.41
2023-03-15T16:43:15.173Z,50.30
2023-03-15T16:45:42.928Z,49.89
2023-03-15T16:48:12.075Z,50.17
2023-03-15T16:50:42.327Z,49.88
2023-03-15T16:53:16.716Z,51.15
2023-03-15T16:55:44.531Z,50.70
2023-03-15T16:58:20.567Z,51.05
2023-03-15T17:00:48.655Z,52.18
2023-03-15T17:03:17.264Z,52.72
2023-03-15T17:05:48.241Z,52.34
2023-03-15T17:08:19.750Z,52.05
2023-03-15T17:10:47.837Z,52.21
2023-03-15T17:13:18.218Z,52.31
2023-03-15T17:15:46.195Z,52.43
2023-03-15T17:18:17.923Z,53.04
2023-03-15T17:20:49.472Z,52.50
2023-03-15T17:23:17.961Z,52.34
2023-03-15T17:25:45.877Z,52.76
2023-03-15T17:28:13.753Z,53.01
2023-03-15T17:30:42.152Z,51.97
2023-03-15T17:33:10.040Z,52.61
2023-03-15T17:35:41.686Z,52.84
2023-03-15T17:38:18.392Z,52.08
2023-03-15T17:40:46.912Z,52.29
2023-03-15T17:43:17.193Z,52.72
2023-03-15T17:45:45.371Z,53.71
2023-03-15T17:48:13.528Z,53.83
2023-03-15T17:50:44.212Z,53.99
2023-03-15T17:53:17.527Z,53.67
2023-03-15T17:55:46.558Z,53.10
2023-03-15T17:58:20.104Z,53.71
2023-03-15T18:00:49.231Z,53.19
2023-03-15T18:03:18.180Z,52.65
2023-03-15T18:05:48.410Z,52.21
2023-03-15T18:08:22.347Z,52.34
2023-03-15T18:10:52.722Z,52.53
2023-03-15T18:13:23.124Z,52.05
2023-03-15T18:15:58.066Z,51.89
2023-03-15T18:18:25.717Z,52.24
2023-03-15T18:20:53.959Z,53.22
2023-03-15T18:23:23.172Z,53.82
2023-03-15T18:25:50.966Z,54.75
2023-03-15T18:28:18.829Z,54.87
2023-03-15T18:30:46.577Z,55.13
2023-03-15T18:33:15.680Z,55.01
2023-03-15T18:35:43.552Z,55.42
2023-03-15T18:38:11.361Z,55.49
2023-03-15T18:40:40.654Z,55.57
2023-03-15T18:43:08.668Z,55.24
2023-03-15T18:45:37.485Z,55.53
2023-03-15T18:48:05.636Z,55.55
2023-03-15T18:50:34.444Z,55.43
2023-03-15T18:53:04.975Z,55.98
2023-03-15T18:55:33.450Z,55.65
2023-03-15T18:58:02.716Z,56.53
2023-03-15T19:00:35.974Z,57.00
2023-03-15T19:03:05.622Z,56.86
2023-03-15T19:05:36.185Z,56.98
2023-03-15T19:08:04.300Z,57.08
2023-03-15T19:10:32.027Z,57.70
2023-03-15T19:12:59.843Z,56.69
2023-03-15T19:15:29.308Z,56.39
2023-03-15T19:17:57.129Z,55.84
2023-03-15T19:20:24.942Z,56.38
2023-03-15T19:22:53.665Z,57.16
2023-03-15T19:25:22.286Z,57.53
2023-03-15T19:27:49.972Z,57.83
2023-03-15T19:30:20.890Z,58.12
2023-03-15T19:32:50.896Z,58.13
2023-03-15T19:35:19.537Z,57.56
2023-03-15T19:37:49.061Z,57.58
2023-03-15T19:40:18.521Z,58.08
2023-03-15T19:42:46.671Z,58.38
2023-03-15T19:45:15.480Z,58.30
2023-03-15T19:47:43.619Z,58.49
2023-03-15T19:50:15.063Z,58.44
2023-03-15T19:52:46.623Z,58.68
2023-03-15T19:55:15.197Z,58.71
2023-03-15T19:57:43.060Z,58.61
2023-03-15T20:00:16.217Z,58.66
2023-03-15T20:02:44.909Z,58.85
2023-03-15T20:05:15.952Z,59.31
2023-03-15T20:07:44.158Z,59.41
2023-03-15T20:10:13.340Z,59.67
2023-03-15T20:12:42.361Z,58.81
2023-03-15T20:15:11.832Z,58.11
2023-03-15T20:17:39.834Z,58.30
2023-03-15T20:20:10.343Z,59.26
2023-03-15T20:22:41.517Z,59.21
2023-03-15T20:25:10.033Z,59.00
2023-03-15T20:27:38.245Z,59.12
2023-03-15T20:30:06.836Z,59.23
2023-03-15T20:32:35.870Z,58.69
2023-03-15T20:35:08.876Z,58.73
2023-03-15T20:37:40.551Z,58.45
2023-03-15T20:40:10.783Z,58.53
2023-03-15T20:42:38.532Z,58.64
2023-03-15T20:45:07.374Z,58.66
2023-03-15T20:47:35.321Z,59.10
2023-03-15T20:50:03.071Z,59.14
2023-03-15T20:52:32.140Z,59.43
2023-03-15T20:55:01.435Z,60.40
2023-03-15T20:57:29.198Z,61.09
2023-03-15T20:59:57.002Z,61.84
2023-03-15T21:02:24.891Z,62.26
2023-03-15T21:04:52.898Z,62.16
2023-03-15T21:07:20.577Z,61.83
2023-03-15T21:09:48.253Z,61.94
2023-03-15T21:12:17.462Z,61.27
2023-03-15T21:14:45.210Z,60.50
2023-03-15T21:17:14.629Z,60.87
2023-03-15T21:19:42.888Z,61.06
2023-03-15T21:22:10.721Z,61.05
2023-03-15T21:24:52.852Z,60.90
2023-03-15T21:27:22.218Z,61.86
2023-03-15T21:29:49.919Z,62.58
2023-03-15T21:32:17.670Z,63.23
2023-03-15T21:34:45.368Z,63.46
2023-03-15T21:37:13.146Z,63.81
2023-03-15T21:39:42.148Z,64.17
2023-03-15T21:42:09.772Z,63.30
2023-03-15T21:44:38.956Z,63.29
2023-03-15T21:47:06.649Z,63.38
2023-03-15T21:49:34.368Z,63.25
2023-03-15T21:52:02.491Z,63.15
2023-03-15T21:54:30.280Z,62.74
2023-03-15T21:56:58.003Z,61.83
2023-03-15T21:59:27.819Z,61.88
2023-03-15T22:01:58.080Z,62.37
2023-03-15T22:04:25.965Z,62.59
2023-03-15T22:06:53.941Z,62.62
2023-03-15T22:09:23.223Z,63.20
2023-03-15T22:11:51.074Z,63.47
2023-03-15T22:14:19.432Z,63.70
2023-03-15T22:16:47.107Z,63.65
2023-03-15T22:19:16.221Z,64.08
2023-03-15T22:21:44.080Z,64.43
2023-03-15T22:24:12.113Z,64.86
2023-03-15T22:26:41.022Z,64.96
2023-03-15T22:29:08.771Z,65.34
2023-03-15T22:31:38.077Z,65.04
2023-03-15T22:34:06.029Z,65.16
2023-03-15T22:36:35.194Z,65.04
2023-03-15T22:39:04.084Z,64.58
2023-03-15T22:41:32.132Z,64.71
2023-03-15T22:43:59.796Z,64.79
2023-03-15T22:46:27.538Z,64.97
2023-03-15T22:48:55.609Z,65.21
2023-03-15T22:51:23.356Z,65.28
2023-03-15T22:53:52.460Z,65.48
2023-03-15T22:56:20.405Z,65.49
2023-03-15T22:58:48.748Z,65.94
2023-03-15T23:01:16.492Z,66.31
2023-03-15T23:03:44.296Z,66.67
2023-03-15T23:06:12.068Z,66.95
2023-03-15T23:08:39.803Z,66.92
2023-03-15T23:11:08.812Z,66.82
2023-03-15T23:13:36.508Z,66.68
2023-03-15T23:16:04.802Z,67.02
2023-03-15T23:18:34.158Z,67.62
2023-03-15T23:21:06.845Z,68.12
2023-03-15T23:23:34.716Z,68.25
2023-03-15T23:26:03.888Z,68.44
2023-03-15T23:28:33.786Z,68.73
2023-03-15T23:31:02.497Z,68.90
2023-03-15T23:33:30.270Z,68.61
2023-03-15T23:35:58.302Z,68.42
2023-03-15T23:38:26.039Z,68.47
2023-03-15T23:40:57.833Z,68.96
2023-03-15T23:43:25.883Z,69.13
2023-03-15T23:45:57.627Z,69.11
2023-03-15T23:48:25.686Z,69.23
2023-03-15T23:50:54.452Z,69.23
2023-03-15T23:53:22.981Z,69.12
2023-03-15T23:55:50.675Z,68.94
2023-03-15T23:58:18.801Z,69.30
